createdAt,value
2022-12-03T00:00:24.649Z,102453.26
2022-12-03T00:01:26.531Z,102468.53
2022-12-03T00:02:28.449Z,102456.51
2022-12-03T00:03:30.488Z,102461.29
2022-12-03T00:04:32.441Z,102455.81
2022-12-03T00:05:34.302Z,102475.42
2022-12-03T00:06:36.131Z,102461.59
2022-12-03T00:07:37.978Z,102462.48
2022-12-03T00:08:39.848Z,102471.85
2022-12-03T00:09:41.669Z,102473.39
2022-12-03T00:10:43.512Z,102484.67
2022-12-03T00:11:45.320Z,102480.20
2022-12-03T00:12:47.134Z,102482.76
2022-12-03T00:13:48.967Z,102481.88
2022-12-03T00:14:51.610Z,102484.97
2022-12-03T00:15:53.563Z,102481.94
2022-12-03T00:16:55.468Z,102481.94
2022-12-03T00:17:57.282Z,102493.20
2022-12-03T00:18:59.076Z,102488.87
2022-12-03T00:20:00.879Z,102494.87
2022-12-03T00:21:02.713Z,102503.45
2022-12-03T00:22:04.524Z,102507.58
2022-12-03T00:23:06.334Z,102497.09
2022-12-03T00:24:08.170Z,102496.85
2022-12-03T00:25:09.950Z,102493.94
2022-12-03T00:26:12.205Z,102494.70
2022-12-03T00:27:14.083Z,102503.27
2022-12-03T00:28:15.908Z,102498.14
2022-12-03T00:29:17.697Z,102514.56
2022-12-03T00:30:19.510Z,102509.08
2022-12-03T00:31:21.510Z,102507.92
2022-12-03T00:32:23.477Z,102513.84
2022-12-03T00:33:25.295Z,102505.23
2022-12-03T00:34:27.118Z,102518.06
2022-12-03T00:35:28.944Z,102516.41
2022-12-03T00:36:30.881Z,102514.73
2022-12-03T00:37:32.682Z,102522.42
2022-12-03T00:38:34.462Z,102520.09
2022-12-03T00:39:36.242Z,102524.46
2022-12-03T00:40:38.150Z,102522.13
2022-12-03T00:41:40.014Z,102514.44
2022-12-03T00:42:41.840Z,102521.45
2022-12-03T00:43:43.646Z,102529.15
2022-12-03T00:44:45.466Z,102513.53
2022-12-03T00:45:47.290Z,102528.27
2022-12-03T00:46:49.418Z,102534.55
2022-12-03T00:47:51.593Z,102516.48
2022-12-03T00:48:53.405Z,102528.38
2022-12-03T00:49:55.193Z,102518.13
2022-12-03T00:50:56.996Z,102525.58
2022-12-03T00:51:58.836Z,102535.72
2022-12-03T00:53:00.633Z,102537.28
2022-12-03T00:54:02.458Z,102516.66
2022-12-03T00:55:04.268Z,102515.61
2022-12-03T00:56:06.376Z,102524.98
2022-12-03T00:57:08.235Z,102529.34
2022-12-03T00:58:10.049Z,102521.42
2022-12-03T00:59:11.815Z,102531.67
2022-12-03T01:00:13.920Z,102527.30
2022-12-03T01:01:15.790Z,102534.87
2022-12-03T01:02:17.700Z,102542.56
2022-12-03T01:03:19.693Z,102527.06
2022-12-03T01:04:21.571Z,102532.95
2022-12-03T01:05:23.400Z,102554.63
2022-12-03T01:06:25.235Z,102535.12
2022-12-03T01:07:27.131Z,102537.68
2022-12-03T01:08:28.917Z,102541.13
2022-12-03T01:09:30.716Z,102539.36
2022-12-03T01:10:32.630Z,102539.36
2022-12-03T01:11:34.438Z,102538.33
2022-12-03T01:12:36.303Z,102546.93
2022-12-03T01:13:38.126Z,102539.13
2022-12-03T01:14:39.917Z,102551.94
2022-12-03T01:15:41.801Z,102550.26
2022-12-03T01:16:43.543Z,102547.69
2022-12-03T01:17:45.370Z,102543.69
2022-12-03T01:18:47.401Z,102558.55
2022-12-03T01:19:49.185Z,102548.94
2022-12-03T01:20:50.999Z,102543.57
2022-12-03T01:21:52.812Z,102552.42
2022-12-03T01:22:54.670Z,102552.42
2022-12-03T01:23:56.483Z,102551.50
2022-12-03T01:24:58.309Z,102545.61
2022-12-03T01:26:00.119Z,102539.84
2022-12-03T01:27:01.908Z,102554.42
2022-12-03T01:28:03.744Z,102568.05
2022-12-03T01:29:05.537Z,102552.30
2022-12-03T01:30:07.322Z,102554.38
2022-12-03T01:31:09.185Z,102552.45
2022-12-03T01:32:10.970Z,102561.19
2022-12-03T01:33:12.821Z,102562.37
2022-12-03T01:34:14.722Z,102563.14
2022-12-03T01:35:16.547Z,102565.83
2022-12-03T01:36:18.359Z,102565.06
2022-12-03T01:37:20.179Z,102559.05
2022-12-03T01:38:22.030Z,102570.95
2022-12-03T01:39:23.828Z,102559.69
2022-12-03T01:40:25.724Z,102569.06
2022-12-03T01:41:27.509Z,102559.33
2022-12-03T01:42:29.323Z,102560.09
2022-12-03T01:43:31.171Z,102557.65
2022-12-03T01:44:32.989Z,102545.75
2022-12-03T01:45:34.800Z,102567.26
2022-12-03T01:46:36.677Z,102561.77
2022-12-03T01:47:38.503Z,102556.39
2022-12-03T01:48:40.335Z,102555.64
2022-12-03T01:49:42.165Z,102561.00
2022-12-03T01:50:44.181Z,102562.89
2022-12-03T01:51:45.955Z,102565.34
2022-12-03T01:52:47.763Z,102560.09
2022-12-03T01:53:49.607Z,102556.77
2022-12-03T01:54:51.747Z,102564.20
2022-12-03T01:55:53.825Z,102568.56
2022-12-03T01:56:55.628Z,102560.09
2022-12-03T01:57:57.427Z,102568.94
2022-12-03T01:58:59.285Z,102567.50
2022-12-03T02:00:01.084Z,102570.58
2022-12-03T02:01:02.860Z,102568.69
2022-12-03T02:02:04.691Z,102566.77
2022-12-03T02:03:06.478Z,102574.45
2022-12-03T02:04:08.408Z,102562.28
2022-12-03T02:05:10.379Z,102572.53
2022-12-03T02:06:12.283Z,102565.48
2022-12-03T02:07:14.109Z,102567.03
2022-12-03T02:08:16.014Z,102574.47
2022-12-03T02:09:17.867Z,102569.86
2022-12-03T02:10:19.668Z,102563.73
2022-12-03T02:11:21.475Z,102569.10
2022-12-03T02:12:23.265Z,102572.42
2022-12-03T02:13:25.169Z,102582.92
2022-12-03T02:14:27.015Z,102574.34
2022-12-03T02:15:28.804Z,102576.79
2022-12-03T02:16:30.790Z,102575.78
2022-12-03T02:17:32.635Z,102581.79
2022-12-03T02:18:34.538Z,102590.23
2022-12-03T02:19:36.391Z,102598.70
2022-12-03T02:20:38.231Z,102603.58
2022-12-03T02:21:40.031Z,102603.33
2022-12-03T02:22:41.859Z,102602.16
2022-12-03T02:23:43.659Z,102596.03
2022-12-03T02:24:45.511Z,102600.11
2022-12-03T02:25:47.329Z,102593.09
2022-12-03T02:26:49.235Z,102596.54
2022-12-03T02:27:51.028Z,102599.86
2022-12-03T02:28:52.844Z,102597.42
2022-12-03T02:29:54.710Z,102600.11
2022-12-03T02:30:56.575Z,102599.86
2022-12-03T02:31:58.493Z,102597.30
2022-12-03T02:33:00.341Z,102593.98
2022-12-03T02:34:02.161Z,102602.42
2022-12-03T02:35:04.008Z,102597.30
2022-12-03T02:36:06.047Z,102609.22
2022-12-03T02:37:07.857Z,102616.65
2022-12-03T02:38:09.662Z,102606.91
2022-12-03T02:39:11.474Z,102614.72
2022-12-03T02:40:13.411Z,102616.02
2022-12-03T02:41:15.223Z,102612.44
2022-12-03T02:42:17.033Z,102610.52
2022-12-03T02:43:18.829Z,102611.14
2022-12-03T02:44:20.628Z,102615.25
2022-12-03T02:45:22.486Z,102640.84
2022-12-03T02:46:24.340Z,102622.02
2022-12-03T02:47:26.186Z,102623.69
2022-12-03T02:48:27.989Z,102625.23
2022-12-03T02:49:29.790Z,102625.86
2022-12-03T02:50:31.651Z,102616.13
2022-12-03T02:51:33.547Z,102625.48
2022-12-03T02:52:35.354Z,102621.91
2022-12-03T02:53:37.162Z,102622.53
2022-12-03T02:54:38.978Z,102622.15
2022-12-03T02:55:40.824Z,102624.84
2022-12-03T02:56:42.725Z,102633.53
2022-12-03T02:57:44.527Z,102618.67
2022-12-03T02:58:46.331Z,102637.38
2022-12-03T02:59:48.136Z,102635.83
2022-12-03T03:00:50.137Z,102629.70
2022-12-03T03:01:51.987Z,102626.87
2022-12-03T03:02:53.807Z,102613.04
2022-12-03T03:03:55.629Z,102631.35
2022-12-03T03:04:57.422Z,102627.61
2022-12-03T03:05:59.276Z,102627.61
2022-12-03T03:07:01.167Z,102630.17
2022-12-03T03:08:03.210Z,102632.99
2022-12-03T03:09:05.083Z,102620.86
2022-12-03T03:10:06.896Z,102623.41
2022-12-03T03:11:08.765Z,102629.55
2022-12-03T03:12:10.573Z,102633.13
2022-12-03T03:13:12.366Z,102633.25
2022-12-03T03:14:14.168Z,102629.94
2022-12-03T03:15:15.968Z,102622.39
2022-12-03T03:16:17.954Z,102625.96
2022-12-03T03:17:19.750Z,102627.50
2022-12-03T03:18:21.575Z,102625.45
2022-12-03T03:19:23.366Z,102621.38
2022-12-03T03:20:25.193Z,102624.56
2022-12-03T03:21:27.041Z,102627.74
2022-12-03T03:22:28.949Z,102644.90
2022-12-03T03:23:30.769Z,102628.92
2022-12-03T03:24:32.568Z,102629.18
2022-12-03T03:25:34.383Z,102632.36
2022-12-03T03:26:36.226Z,102627.12
2022-12-03T03:27:38.030Z,102640.92
2022-12-03T03:28:39.852Z,102625.70
2022-12-03T03:29:41.661Z,102638.00
2022-12-03T03:30:43.690Z,102634.03
2022-12-03T03:31:45.700Z,102638.27
2022-12-03T03:32:47.739Z,102634.42
2022-12-03T03:33:49.529Z,102647.09
2022-12-03T03:34:51.805Z,102644.53
2022-12-03T03:35:53.843Z,102645.28
2022-12-03T03:36:55.702Z,102639.41
2022-12-03T03:37:57.548Z,102642.86
2022-12-03T03:38:59.395Z,102643.74
2022-12-03T03:40:01.196Z,102641.05
2022-12-03T03:41:02.999Z,102653.85
2022-12-03T03:42:04.838Z,102657.33
2022-12-03T03:43:06.645Z,102646.96
2022-12-03T03:44:08.442Z,102650.41
2022-12-03T03:45:10.338Z,102645.81
2022-12-03T03:46:12.233Z,102641.70
2022-12-03T03:47:14.140Z,102668.47
2022-12-03T03:48:15.937Z,102662.44
2022-12-03T03:49:17.741Z,102650.17
2022-12-03T03:50:19.552Z,102654.90
2022-12-03T03:51:21.377Z,102644.27
2022-12-03T03:52:23.253Z,102649.00
2022-12-03T03:53:25.081Z,102644.64
2022-12-03T03:54:27.949Z,102659.98
2022-12-03T03:55:29.785Z,102661.36
2022-12-03T03:56:31.717Z,102658.55
2022-12-03T03:57:33.569Z,102668.52
2022-12-03T03:58:35.366Z,102659.07
2022-12-03T03:59:37.186Z,102666.61
2022-12-03T04:00:38.997Z,102665.56
2022-12-03T04:01:40.802Z,102671.47
2022-12-03T04:02:42.641Z,102656.61
2022-12-03T04:03:44.466Z,102668.64
2022-12-03T04:04:46.261Z,102667.46
2022-12-03T04:05:48.078Z,102678.48
2022-12-03T04:06:49.991Z,102665.69
2022-12-03T04:07:52.294Z,102676.54
2022-12-03T04:08:54.304Z,102675.66
2022-12-03T04:09:56.100Z,102678.05
2022-12-03T04:10:57.909Z,102677.91
2022-12-03T04:11:59.726Z,102685.31
2022-12-03T04:13:01.575Z,102677.25
2022-12-03T04:14:03.386Z,102678.92
2022-12-03T04:15:05.184Z,102673.80
2022-12-03T04:16:07.165Z,102673.53
2022-12-03T04:17:08.898Z,102677.98
2022-12-03T04:18:10.755Z,102672.33
2022-12-03T04:19:12.555Z,102672.20
2022-12-03T04:20:14.465Z,102675.77
2022-12-03T04:21:16.258Z,102681.16
2022-12-03T04:22:18.056Z,102675.29
2022-12-03T04:23:19.907Z,102682.96
2022-12-03T04:24:21.753Z,102686.67
2022-12-03T04:25:23.575Z,102681.29
2022-12-03T04:26:25.375Z,102677.09
2022-12-03T04:27:27.173Z,102677.36
2022-12-03T04:28:29.014Z,102691.30
2022-12-03T04:29:30.832Z,102697.16
2022-12-03T04:30:32.687Z,102690.14
2022-12-03T04:31:34.544Z,102686.53
2022-12-03T04:32:36.321Z,102685.92
2022-12-03T04:33:38.192Z,102685.92
2022-12-03T04:34:39.996Z,102685.17
2022-12-03T04:35:41.803Z,102688.61
2022-12-03T04:36:43.711Z,102708.58
2022-12-03T04:37:45.513Z,102693.72
2022-12-03T04:38:47.258Z,102696.90
2022-12-03T04:39:49.127Z,102697.95
2022-12-03T04:40:50.944Z,102702.28
2022-12-03T04:41:52.746Z,102702.14
2022-12-03T04:42:54.565Z,102706.51
2022-12-03T04:43:56.422Z,102698.22
2022-12-03T04:44:58.219Z,102698.84
2022-12-03T04:46:00.097Z,102698.84
2022-12-03T04:47:01.926Z,102698.35
2022-12-03T04:48:03.724Z,102719.70
2022-12-03T04:49:05.581Z,102702.69
2022-12-03T04:50:07.493Z,102699.23
2022-12-03T04:51:09.315Z,102720.72
2022-12-03T04:52:11.119Z,102711.89
2022-12-03T04:53:12.923Z,102708.18
2022-12-03T04:54:14.782Z,102716.46
2022-12-03T04:55:16.663Z,102721.31
2022-12-03T04:56:18.500Z,102706.72
2022-12-03T04:57:20.313Z,102724.75
2022-12-03T04:58:22.100Z,102709.55
2022-12-03T04:59:23.920Z,102717.83
2022-12-03T05:00:25.740Z,102716.06
2022-12-03T05:01:27.632Z,102723.86
2022-12-03T05:02:29.517Z,102719.91
2022-12-03T05:03:31.278Z,102730.27
2022-12-03T05:04:33.129Z,102712.77
2022-12-03T05:05:34.922Z,102717.55
2022-12-03T05:06:36.709Z,102720.98
2022-12-03T05:07:38.575Z,102717.67
2022-12-03T05:08:40.409Z,102721.91
2022-12-03T05:09:42.253Z,102727.02
2022-12-03T05:10:44.527Z,102721.77
2022-12-03T05:11:46.320Z,102723.67
2022-12-03T05:12:48.119Z,102727.91
2022-12-03T05:13:49.936Z,102722.66
2022-12-03T05:14:52.228Z,102718.30
2022-12-03T05:15:54.299Z,102740.55
2022-12-03T05:16:56.331Z,102726.88
2022-12-03T05:17:58.318Z,102732.00
2022-12-03T05:19:00.082Z,102746.28
2022-12-03T05:20:02.039Z,102743.73
2022-12-03T05:21:03.828Z,102730.06
2022-12-03T05:22:05.649Z,102741.17
2022-12-03T05:23:07.446Z,102734.55
2022-12-03T05:24:09.257Z,102747.61
2022-12-03T05:25:11.105Z,102736.46
2022-12-03T05:26:13.098Z,102757.97
2022-12-03T05:27:18.778Z,102744.41
2022-12-03T05:28:18.510Z,102744.00
2022-12-03T05:29:20.307Z,102744.00
2022-12-03T05:30:22.158Z,102750.65
2022-12-03T05:31:24.007Z,102755.90
2022-12-03T05:32:25.858Z,102750.17
2022-12-03T05:33:27.640Z,102757.05
2022-12-03T05:34:29.430Z,102752.86
2022-12-03T05:35:31.282Z,102750.92
2022-12-03T05:36:33.087Z,102755.28
2022-12-03T05:37:35.103Z,102758.11
2022-12-03T05:38:36.930Z,102763.49
2022-12-03T05:39:38.748Z,102753.40
2022-12-03T05:40:40.904Z,102751.59
2022-12-03T05:41:42.746Z,102771.03
2022-12-03T05:42:44.553Z,102746.34
2022-12-03T05:43:46.401Z,102760.67
2022-12-03T05:44:48.185Z,102763.09
2022-12-03T05:45:50.104Z,102767.80
2022-12-03T05:46:52.047Z,102763.16
2022-12-03T05:47:53.853Z,102757.78
2022-12-03T05:48:55.642Z,102764.05
2022-12-03T05:49:57.444Z,102765.11
2022-12-03T05:50:59.408Z,102770.36
2022-12-03T05:52:01.241Z,102761.28
2022-12-03T05:53:03.048Z,102761.42
2022-12-03T05:54:04.875Z,102759.61
2022-12-03T05:55:06.660Z,102758.25
2022-12-03T05:56:08.532Z,102770.77
2022-12-03T05:57:10.404Z,102756.17
2022-12-03T05:58:12.186Z,102766.53
2022-12-03T05:59:14.000Z,102765.00
2022-12-03T06:00:15.801Z,102770.89
2022-12-03T06:01:17.634Z,102765.00
2022-12-03T06:02:19.522Z,102764.66
2022-12-03T06:03:21.517Z,102757.25
2022-12-03T06:04:23.479Z,102753.31
2022-12-03T06:05:25.282Z,102752.66
2022-12-03T06:06:27.140Z,102764.70
2022-12-03T06:07:29.125Z,102766.38
2022-12-03T06:08:30.869Z,102767.39
2022-12-03T06:09:32.651Z,102764.09
2022-12-03T06:10:34.460Z,102768.42
2022-12-03T06:11:36.312Z,102770.98
2022-12-03T06:12:38.388Z,102764.35
2022-12-03T06:13:40.210Z,102764.63
2022-12-03T06:14:42.021Z,102760.39
2022-12-03T06:15:44.407Z,102770.00
2022-12-03T06:16:46.513Z,102764.75
2022-12-03T06:17:48.381Z,102797.13
2022-12-03T06:18:50.249Z,102777.28
2022-12-03T06:19:52.060Z,102773.05
2022-12-03T06:20:53.937Z,102773.94
2022-12-03T06:21:55.795Z,102771.55
2022-12-03T06:22:57.572Z,102769.73
2022-12-03T06:23:59.399Z,102775.61
2022-12-03T06:25:06.575Z,102779.97
2022-12-03T06:26:04.875Z,102773.05
2022-12-03T06:27:06.726Z,102779.70
2022-12-03T06:28:08.633Z,102777.77
2022-12-03T06:29:10.416Z,102783.91
2022-12-03T06:30:12.227Z,102778.03
2022-12-03T06:31:14.141Z,102766.91
2022-12-03T06:32:15.973Z,102782.27
2022-12-03T06:33:17.766Z,102768.28
2022-12-03T06:34:19.676Z,102785.30
2022-12-03T06:35:21.480Z,102773.27
2022-12-03T06:36:23.649Z,102791.17
2022-12-03T06:37:25.545Z,102781.72
2022-12-03T06:38:27.361Z,102777.77
2022-12-03T06:39:29.166Z,102800.17
2022-12-03T06:40:30.968Z,102776.49
2022-12-03T06:41:32.778Z,102784.95
2022-12-03T06:42:34.626Z,102783.02
2022-12-03T06:43:36.498Z,102792.36
2022-12-03T06:44:38.306Z,102783.02
2022-12-03T06:45:43.290Z,102786.59
2022-12-03T06:46:43.778Z,102781.48
2022-12-03T06:47:45.593Z,102784.95
2022-12-03T06:48:47.411Z,102787.78
2022-12-03T06:49:49.207Z,102786.24
2022-12-03T06:50:50.999Z,102780.38
2022-12-03T06:51:52.828Z,102785.63
2022-12-03T06:52:54.678Z,102771.95
2022-12-03T06:53:56.574Z,102784.35
2022-12-03T06:54:58.426Z,102778.48
2022-12-03T06:56:00.226Z,102794.10
2022-12-03T06:57:02.047Z,102787.71
2022-12-03T06:58:03.920Z,102795.16
2022-12-03T06:59:05.784Z,102798.78
2022-12-03T07:00:07.702Z,102794.67
2022-12-03T07:01:09.592Z,102806.72
2022-12-03T07:02:11.484Z,102793.79
2022-12-03T07:03:13.358Z,102807.21
2022-12-03T07:04:15.152Z,102805.27
2022-12-03T07:05:16.970Z,102792.34
2022-12-03T07:06:18.839Z,102789.52
2022-12-03T07:07:20.748Z,102785.02
2022-12-03T07:08:22.592Z,102793.88
2022-12-03T07:09:24.395Z,102793.13
2022-12-03T07:10:26.502Z,102787.84
2022-12-03T07:11:28.320Z,102800.28
2022-12-03T07:12:30.127Z,102795.16
2022-12-03T07:13:31.985Z,102795.03
2022-12-03T07:14:33.816Z,102800.42
2022-12-03T07:15:35.613Z,102807.21
2022-12-03T07:16:37.544Z,102803.63
2022-12-03T07:17:39.357Z,102802.58
2022-12-03T07:18:41.193Z,102791.94
2022-12-03T07:19:43.025Z,102791.94
2022-12-03T07:20:44.834Z,102800.64
2022-12-03T07:21:46.641Z,102807.30
2022-12-03T07:22:48.432Z,102791.81
2022-12-03T07:23:50.272Z,102797.68
2022-12-03T07:24:52.479Z,102798.73
2022-12-03T07:25:54.600Z,102791.81
2022-12-03T07:26:56.405Z,102804.61
2022-12-03T07:27:58.220Z,102798.20
2022-12-03T07:29:00.083Z,102786.16
2022-12-03T07:30:01.910Z,102806.77
2022-12-03T07:31:03.791Z,102801.78
2022-12-03T07:32:05.646Z,102794.98
2022-12-03T07:33:07.482Z,102801.78
2022-12-03T07:34:09.336Z,102806.14
2022-12-03T07:35:11.147Z,102794.72
2022-12-03T07:36:12.971Z,102800.89
2022-12-03T07:37:18.620Z,102795.77
2022-12-03T07:38:18.432Z,102802.05
2022-12-03T07:39:20.279Z,102798.60
2022-12-03T07:40:22.170Z,102801.30
2022-12-03T07:41:23.975Z,102810.13
2022-12-03T07:42:25.789Z,102804.25
2022-12-03T07:43:27.601Z,102794.41
2022-12-03T07:44:29.436Z,102796.22
2022-12-03T07:45:31.304Z,102808.88
2022-12-03T07:46:33.180Z,102799.40
2022-12-03T07:47:34.938Z,102801.20
2022-12-03T07:48:36.791Z,102825.39
2022-12-03T07:49:38.623Z,102825.66
2022-12-03T07:50:40.426Z,102812.73
2022-12-03T07:51:42.241Z,102809.28
2022-12-03T07:52:44.052Z,102821.95
2022-12-03T07:53:45.858Z,102801.83
2022-12-03T07:54:47.701Z,102827.16
2022-12-03T07:55:49.541Z,102799.89
2022-12-03T07:56:54.337Z,102815.86
2022-12-03T07:57:55.085Z,102803.98
2022-12-03T07:58:56.907Z,102786.20
2022-12-03T07:59:58.744Z,102786.20
2022-12-03T08:01:00.600Z,102822.44
2022-12-03T08:02:02.435Z,102817.58
2022-12-03T08:03:04.298Z,102804.03
2022-12-03T08:04:06.122Z,102811.05
2022-12-03T08:05:07.971Z,102795.70
2022-12-03T08:06:10.186Z,102806.33
2022-12-03T08:07:11.982Z,102801.34
2022-12-03T08:08:13.881Z,102802.27
2022-12-03T08:09:16.333Z,102798.16
2022-12-03T08:10:18.351Z,102792.28
2022-12-03T08:11:20.154Z,102802.92
2022-12-03T08:12:21.958Z,102819.83
2022-12-03T08:13:23.777Z,102814.84
2022-12-03T08:14:25.605Z,102802.53
2022-12-03T08:15:27.456Z,102805.97
2022-12-03T08:16:29.398Z,102814.27
2022-12-03T08:17:31.240Z,102803.77
2022-12-03T08:18:33.045Z,102841.28
2022-12-03T08:19:34.851Z,102802.00
2022-12-03T08:20:36.700Z,102798.66
2022-12-03T08:21:38.516Z,102799.57
2022-12-03T08:22:40.319Z,102797.41
2022-12-03T08:23:42.142Z,102801.91
2022-12-03T08:24:43.952Z,102792.28
2022-12-03T08:25:45.822Z,102791.66
2022-12-03T08:26:47.617Z,102785.88
2022-12-03T08:27:49.417Z,102800.49
2022-12-03T08:28:51.235Z,102798.81
2022-12-03T08:29:53.037Z,102787.06
2022-12-03T08:30:54.879Z,102791.66
2022-12-03T08:31:56.781Z,102792.45
2022-12-03T08:32:58.653Z,102793.96
2022-12-03T08:34:00.478Z,102782.96
2022-12-03T08:35:02.269Z,102780.80
2022-12-03T08:36:04.118Z,102812.41
2022-12-03T08:37:05.929Z,102797.96
2022-12-03T08:38:07.741Z,102821.27
2022-12-03T08:39:09.557Z,102796.29
2022-12-03T08:40:11.457Z,102808.34
2022-12-03T08:41:13.284Z,102807.03
2022-12-03T08:42:15.118Z,102795.63
2022-12-03T08:43:16.941Z,102793.08
2022-12-03T08:44:18.736Z,102798.33
2022-12-03T08:45:20.540Z,102780.66
2022-12-03T08:46:22.527Z,102787.72
2022-12-03T08:47:24.343Z,102787.84
2022-12-03T08:48:26.134Z,102783.25
2022-12-03T08:49:27.933Z,102795.56
2022-12-03T08:50:29.835Z,102795.16
2022-12-03T08:51:31.687Z,102780.70
2022-12-03T08:52:33.505Z,102795.41
2022-12-03T08:53:35.288Z,102799.16
2022-12-03T08:54:37.096Z,102782.61
2022-12-03T08:55:38.902Z,102776.21
2022-12-03T08:56:40.753Z,102807.21
2022-12-03T08:57:42.527Z,102777.09
2022-12-03T08:58:44.341Z,102801.70
2022-12-03T08:59:46.122Z,102775.20
2022-12-03T09:00:48.260Z,102783.77
2022-12-03T09:01:50.152Z,102768.52
2022-12-03T09:02:51.980Z,102785.04
2022-12-03T09:03:53.864Z,102785.30
2022-12-03T09:04:55.941Z,102786.34
2022-12-03T09:05:57.917Z,102784.80
2022-12-03T09:06:59.977Z,102803.62
2022-12-03T09:08:01.816Z,102770.31
2022-12-03T09:09:06.694Z,102778.00
2022-12-03T09:10:07.390Z,102770.31
2022-12-03T09:11:09.198Z,102782.36
2022-12-03T09:12:11.043Z,102781.86
2022-12-03T09:13:12.897Z,102769.81
2022-12-03T09:14:18.521Z,102781.86
2022-12-03T09:15:18.328Z,102783.80
2022-12-03T09:16:20.212Z,102772.89
2022-12-03T09:17:22.085Z,102780.70
2022-12-03T09:18:23.920Z,102780.20
2022-12-03T09:19:25.734Z,102778.02
2022-12-03T09:20:27.560Z,102783.27
2022-12-03T09:21:29.336Z,102778.27
2022-12-03T09:22:31.181Z,102794.16
2022-12-03T09:23:32.983Z,102771.09
2022-12-03T09:24:34.780Z,102796.33
2022-12-03T09:25:36.608Z,102774.06
2022-12-03T09:26:38.409Z,102778.27
2022-12-03T09:27:40.268Z,102770.96
2022-12-03T09:28:42.076Z,102777.00
2022-12-03T09:29:43.875Z,102780.58
2022-12-03T09:30:45.690Z,102782.52
2022-12-03T09:31:47.565Z,102791.47
2022-12-03T09:32:49.419Z,102776.47
2022-12-03T09:33:51.278Z,102782.77
2022-12-03T09:34:53.367Z,102790.59
2022-12-03T09:35:55.386Z,102784.80
2022-12-03T09:36:57.199Z,102780.58
2022-12-03T09:37:59.044Z,102777.10
2022-12-03T09:39:00.853Z,102784.54
2022-12-03T09:40:02.654Z,102788.15
2022-12-03T09:41:04.479Z,102794.92
2022-12-03T09:42:06.266Z,102786.34
2022-12-03T09:43:08.115Z,102778.66
2022-12-03T09:44:15.806Z,102785.59
2022-12-03T09:45:13.521Z,102809.80
2022-12-03T09:46:15.688Z,102787.61
2022-12-03T09:47:17.559Z,102778.02
2022-12-03T09:48:19.405Z,102791.72
2022-12-03T09:49:21.214Z,102776.84
2022-12-03T09:50:23.038Z,102781.97
2022-12-03T09:51:24.852Z,102791.09
2022-12-03T09:52:26.658Z,102773.91
2022-12-03T09:53:29.321Z,102783.78
2022-12-03T09:54:31.212Z,102791.59
2022-12-03T09:55:33.113Z,102779.78
2022-12-03T09:56:34.913Z,102797.73
2022-12-03T09:57:36.721Z,102783.52
2022-12-03T09:58:38.561Z,102799.66
2022-12-03T09:59:40.362Z,102799.79
2022-12-03T10:00:42.262Z,102777.34
2022-12-03T10:01:44.139Z,102792.61
2022-12-03T10:02:45.979Z,102808.78
2022-12-03T10:03:47.818Z,102781.46
2022-12-03T10:04:49.817Z,102772.22
2022-12-03T10:05:51.790Z,102789.53
2022-12-03T10:06:53.743Z,102783.39
2022-12-03T10:07:55.579Z,102802.10
2022-12-03T10:08:57.497Z,102780.58
2022-12-03T10:09:59.308Z,102774.53
2022-12-03T10:11:01.110Z,102780.83
2022-12-03T10:12:02.920Z,102784.02
2022-12-03T10:13:04.724Z,102769.64
2022-12-03T10:14:06.541Z,102769.64
2022-12-03T10:15:08.347Z,102776.82
2022-12-03T10:16:10.268Z,102771.94
2022-12-03T10:17:12.181Z,102778.08
2022-12-03T10:18:14.019Z,102792.59
2022-12-03T10:19:15.922Z,102779.77
2022-12-03T10:20:17.789Z,102777.31
2022-12-03T10:21:19.560Z,102782.96
2022-12-03T10:22:21.481Z,102803.23
2022-12-03T10:23:23.265Z,102779.14
2022-12-03T10:24:25.131Z,102784.02
2022-12-03T10:25:26.920Z,102786.95
2022-12-03T10:26:29.014Z,102776.57
2022-12-03T10:27:30.833Z,102783.34
2022-12-03T10:28:32.659Z,102768.75
2022-12-03T10:29:44.839Z,102763.88
2022-12-03T10:30:47.014Z,102785.41
2022-12-03T10:31:48.786Z,102769.77
2022-12-03T10:32:50.588Z,102767.45
2022-12-03T10:33:52.387Z,102773.09
2022-12-03T10:34:54.414Z,102771.32
2022-12-03T10:35:56.408Z,102797.85
2022-12-03T10:36:58.358Z,102780.02
2022-12-03T10:38:00.169Z,102777.70
2022-12-03T10:39:01.996Z,102785.78
2022-12-03T10:40:03.862Z,102779.52
2022-12-03T10:41:05.663Z,102769.13
2022-12-03T10:42:07.472Z,102780.40
2022-12-03T10:43:09.296Z,102777.83
2022-12-03T10:44:11.119Z,102768.45
2022-12-03T10:45:12.942Z,102784.64
2022-12-03T10:46:14.803Z,102780.27
2022-12-03T10:47:16.779Z,102787.45
2022-12-03T10:48:18.676Z,102764.88
2022-12-03T10:49:20.475Z,102772.70
2022-12-03T10:50:22.335Z,102769.63
2022-12-03T10:51:24.181Z,102764.86
2022-12-03T10:52:26.335Z,102787.44
2022-12-03T10:53:28.087Z,102798.45
2022-12-03T10:54:29.877Z,102753.84
2022-12-03T10:55:31.712Z,102766.80
2022-12-03T10:56:33.531Z,102777.94
2022-12-03T10:57:35.316Z,102762.55
2022-12-03T10:58:37.095Z,102764.73
2022-12-03T10:59:38.815Z,102753.72
2022-12-03T11:00:40.678Z,102765.11
2022-12-03T11:01:42.576Z,102760.86
2022-12-03T11:02:44.411Z,102755.09
2022-12-03T11:03:47.168Z,102756.47
2022-12-03T11:04:49.040Z,102757.51
2022-12-03T11:05:50.909Z,102755.83
2022-12-03T11:06:52.756Z,102763.01
2022-12-03T11:07:54.615Z,102763.13
2022-12-03T11:08:58.673Z,102770.95
2022-12-03T11:10:00.100Z,102750.30
2022-12-03T11:11:01.964Z,102742.72
2022-12-03T11:12:03.767Z,102761.20
2022-12-03T11:13:05.583Z,102768.02
2022-12-03T11:14:07.401Z,102750.17
2022-12-03T11:15:09.212Z,102761.45
2022-12-03T11:16:11.155Z,102763.13
2022-12-03T11:17:13.427Z,102756.31
2022-12-03T11:18:15.247Z,102748.73
2022-12-03T11:19:17.227Z,102778.89
2022-12-03T11:20:22.622Z,102769.39
2022-12-03T11:21:22.778Z,102743.61
2022-12-03T11:22:24.606Z,102743.61
2022-12-03T11:23:26.394Z,102747.98
2022-12-03T11:24:28.220Z,102757.48
2022-12-03T11:25:30.004Z,102748.09
2022-12-03T11:26:32.371Z,102753.23
2022-12-03T11:27:34.214Z,102738.47
2022-12-03T11:28:36.029Z,102757.23
2022-12-03T11:29:37.878Z,102743.48
2022-12-03T11:30:39.875Z,102749.78
2022-12-03T11:31:41.995Z,102759.61
2022-12-03T11:32:43.858Z,102767.98
2022-12-03T11:33:45.667Z,102760.41
2022-12-03T11:34:47.483Z,102759.73
2022-12-03T11:35:49.278Z,102757.96
2022-12-03T11:37:01.610Z,102779.50
2022-12-03T11:37:54.765Z,102782.19
2022-12-03T11:38:56.570Z,102762.42
2022-12-03T11:39:58.379Z,102765.11
2022-12-03T11:41:00.292Z,102764.22
2022-12-03T11:42:02.127Z,102767.80
2022-12-03T11:43:03.933Z,102764.98
2022-12-03T11:44:05.759Z,102765.91
2022-12-03T11:45:07.565Z,102784.75
2022-12-03T11:46:09.553Z,102753.84